createdAt,value
2023-04-23T00:00:42.305Z,101313.75
2023-04-23T00:01:45.499Z,101332.78
2023-04-23T00:02:50.002Z,101314.25
2023-04-23T00:03:55.747Z,101315.25
2023-04-23T00:05:02.731Z,101320.03
2023-04-23T00:06:10.307Z,101296.75
2023-04-23T00:07:14.214Z,101314.66
2023-04-23T00:08:18.281Z,101321.03
2023-04-23T00:09:22.843Z,101319.50
2023-04-23T00:10:25.252Z,101318.63
2023-04-23T00:11:28.161Z,101315.94
2023-04-23T00:12:30.522Z,101315.25
2023-04-23T00:13:32.933Z,101302.13
2023-04-23T00:14:35.112Z,101302.00
2023-04-23T00:15:37.583Z,101298.59
2023-04-23T00:16:40.442Z,101310.19
2023-04-23T00:17:42.340Z,101304.81
2023-04-23T00:18:44.145Z,101301.44
2023-04-23T00:19:47.507Z,101301.44
2023-04-23T00:20:49.447Z,101287.06
2023-04-23T00:21:51.569Z,101298.91
2023-04-23T00:22:53.416Z,101303.44
2023-04-23T00:23:55.739Z,101288.22
2023-04-23T00:24:57.588Z,101302.22
2023-04-23T00:25:59.375Z,101305.59
2023-04-23T00:27:01.562Z,101306.59
2023-04-23T00:28:03.730Z,101319.16
2023-04-23T00:29:05.595Z,101300.41
2023-04-23T00:30:09.094Z,101307.72
2023-04-23T00:31:10.981Z,101303.47
2023-04-23T00:32:14.586Z,101313.09
2023-04-23T00:33:16.460Z,101313.09
2023-04-23T00:34:18.424Z,101314.91
2023-04-23T00:35:20.881Z,101304.09
2023-04-23T00:36:22.819Z,101314.22
2023-04-23T00:37:24.769Z,101312.53
2023-04-23T00:38:26.745Z,101301.97
2023-04-23T00:39:28.940Z,101304.66
2023-04-23T00:40:30.824Z,101293.66
2023-04-23T00:41:32.689Z,101302.97
2023-04-23T00:42:34.724Z,101301.25
2023-04-23T00:43:37.547Z,101299.56
2023-04-23T00:44:40.937Z,101298.72
2023-04-23T00:45:43.060Z,101264.06
2023-04-23T00:46:46.388Z,101304.09
2023-04-23T00:47:48.631Z,101285.06
2023-04-23T00:48:51.112Z,101292.66
2023-04-23T00:49:55.675Z,101272.63
2023-04-23T00:51:00.378Z,101288.28
2023-04-23T00:52:02.451Z,101276.00
2023-04-23T00:53:04.376Z,101282.06
2023-04-23T00:54:07.303Z,101284.06
2023-04-23T00:55:09.314Z,101280.97
2023-04-23T00:56:11.677Z,101284.88
2023-04-23T00:57:14.445Z,101273.91
2023-04-23T00:58:16.346Z,101282.38
2023-04-23T00:59:18.962Z,101271.38
2023-04-23T01:00:21.012Z,101280.69
2023-04-23T01:01:23.598Z,101282.50
2023-04-23T01:02:28.228Z,101279.00
2023-04-23T01:03:32.282Z,101276.31
2023-04-23T01:04:35.709Z,101270.94
2023-04-23T01:05:37.607Z,101279.00
2023-04-23T01:06:39.546Z,101274.19
2023-04-23T01:07:44.049Z,101273.91
2023-04-23T01:08:47.705Z,101282.81
2023-04-23T01:09:51.866Z,101277.44
2023-04-23T01:10:54.739Z,101284.66
2023-04-23T01:11:58.146Z,101281.97
2023-04-23T01:13:00.250Z,101270.13
2023-04-23T01:14:03.471Z,101265.75
2023-04-23T01:15:06.568Z,101281.25
2023-04-23T01:16:09.109Z,101273.34
2023-04-23T01:17:12.692Z,101278.72
2023-04-23T01:18:15.570Z,101271.97
2023-04-23T01:19:17.549Z,101284.94
2023-04-23T01:20:19.666Z,101283.25
2023-04-23T01:21:22.014Z,101275.97
2023-04-23T01:22:24.524Z,101279.72
2023-04-23T01:23:27.276Z,101268.59
2023-04-23T01:24:31.485Z,101270.41
2023-04-23T01:25:33.368Z,101259.16
2023-04-23T01:26:35.736Z,101268.44
2023-04-23T01:27:38.758Z,101265.75
2023-04-23T01:28:42.896Z,101259.84
2023-04-23T01:29:44.798Z,101270.28
2023-04-23T01:30:47.991Z,101269.41
2023-04-23T01:31:51.149Z,101265.91
2023-04-23T01:32:55.600Z,101257.00
2023-04-23T01:33:58.866Z,101269.41
2023-04-23T01:35:01.668Z,101268.59
2023-04-23T01:36:04.505Z,101266.03
2023-04-23T01:37:06.979Z,101255.47
2023-04-23T01:38:11.263Z,101253.22
2023-04-23T01:39:13.073Z,101262.53
2023-04-23T01:40:15.036Z,101259.97
2023-04-23T01:41:17.151Z,101253.91
2023-04-23T01:42:19.507Z,101244.63
2023-04-23T01:43:22.613Z,101254.78
2023-04-23T01:44:24.535Z,101255.78
2023-04-23T01:45:26.544Z,101258.47
2023-04-23T01:46:28.975Z,101250.84
2023-04-23T01:47:31.175Z,101252.22
2023-04-23T01:48:33.358Z,101256.75
2023-04-23T01:49:35.289Z,101250.53
2023-04-23T01:50:37.316Z,101242.91
2023-04-23T01:51:39.313Z,101253.38
2023-04-23T01:52:42.133Z,101249.84
2023-04-23T01:53:43.955Z,101253.38
2023-04-23T01:54:45.720Z,101250.84
2023-04-23T01:55:48.423Z,101257.19
2023-04-23T01:56:54.752Z,101250.84
2023-04-23T01:57:56.939Z,101256.19
2023-04-23T01:58:58.803Z,101259.75
2023-04-23T02:00:11.590Z,101261.56
2023-04-23T02:01:16.489Z,101257.91
2023-04-23T02:02:19.477Z,101255.41
2023-04-23T02:03:21.911Z,101258.19
2023-04-23T02:04:24.537Z,101257.34
2023-04-23T02:05:29.412Z,101238.91
2023-04-23T02:06:31.984Z,101241.28
2023-04-23T02:07:34.624Z,101255.13
2023-04-23T02:08:37.039Z,101259.31
2023-04-23T02:09:40.032Z,101254.81
2023-04-23T02:10:41.847Z,101263.00
2023-04-23T02:11:43.981Z,101256.81
2023-04-23T02:12:45.847Z,101256.81
2023-04-23T02:13:47.703Z,101251.72
2023-04-23T02:14:49.589Z,101238.50
2023-04-23T02:15:51.411Z,101254.41
2023-04-23T02:16:54.287Z,101254.41
2023-04-23T02:17:56.447Z,101250.88
2023-04-23T02:18:58.574Z,101250.03
2023-04-23T02:20:02.744Z,101251.88
2023-04-23T02:21:04.726Z,101253.72
2023-04-23T02:22:07.665Z,101246.66
2023-04-23T02:23:09.753Z,101250.34
2023-04-23T02:24:11.906Z,101253.72
2023-04-23T02:25:15.853Z,101254.84
2023-04-23T02:26:18.856Z,101246.66
2023-04-23T02:27:21.748Z,101255.72
2023-04-23T02:28:23.619Z,101242.28
2023-04-23T02:29:25.398Z,101239.91
2023-04-23T02:30:27.681Z,101253.16
2023-04-23T02:31:29.645Z,101255.03
2023-04-23T02:32:31.688Z,101254.16
2023-04-23T02:33:33.570Z,101247.97
2023-04-23T02:34:35.481Z,101230.00
2023-04-23T02:35:37.632Z,101248.94
2023-04-23T02:36:39.454Z,101237.66
2023-04-23T02:37:41.299Z,101209.72
2023-04-23T02:38:44.965Z,101237.53
2023-04-23T02:39:46.885Z,101241.91
2023-04-23T02:40:48.700Z,101242.88
2023-04-23T02:41:50.909Z,101235.84
2023-04-23T02:42:52.770Z,101240.22
2023-04-23T02:43:54.550Z,101234.16
2023-04-23T02:44:56.906Z,101222.94
2023-04-23T02:45:58.683Z,101242.19
2023-04-23T02:47:01.298Z,101235.38
2023-04-23T02:48:03.390Z,101241.31
2023-04-23T02:49:06.817Z,101239.50
2023-04-23T02:50:08.811Z,101228.00
2023-04-23T02:51:12.500Z,101230.69
2023-04-23T02:52:14.408Z,101228.00
2023-04-23T02:53:16.398Z,101222.94
2023-04-23T02:54:18.599Z,101228.00
2023-04-23T02:55:20.564Z,101226.31
2023-04-23T02:56:22.437Z,101214.50
2023-04-23T02:57:24.509Z,101214.66
2023-04-23T02:58:26.877Z,101225.50
2023-04-23T02:59:30.569Z,101226.31
2023-04-23T03:00:32.498Z,101234.38
2023-04-23T03:01:34.749Z,101220.56
2023-04-23T03:02:37.371Z,101238.06
2023-04-23T03:03:39.929Z,101228.31
2023-04-23T03:04:42.490Z,101232.00
2023-04-23T03:05:44.630Z,101238.22
2023-04-23T03:06:46.746Z,101232.84
2023-04-23T03:07:50.422Z,101236.38
2023-04-23T03:08:52.394Z,101220.84
2023-04-23T03:09:54.209Z,101225.94
2023-04-23T03:10:56.219Z,101239.22
2023-04-23T03:11:58.762Z,101223.31
2023-04-23T03:13:00.717Z,101246.28
2023-04-23T03:14:02.569Z,101231.47
2023-04-23T03:15:04.719Z,101225.81
2023-04-23T03:16:09.292Z,101244.59
2023-04-23T03:17:11.366Z,101237.66
2023-04-23T03:18:13.662Z,101233.97
2023-04-23T03:19:15.709Z,101231.47
2023-04-23T03:20:17.566Z,101225.69
2023-04-23T03:21:20.218Z,101240.34
2023-04-23T03:22:22.044Z,101241.34
2023-04-23T03:23:23.888Z,101203.84
2023-04-23T03:24:26.194Z,101246.69
2023-04-23T03:25:28.123Z,101237.94
2023-04-23T03:26:29.960Z,101228.81
2023-04-23T03:27:31.934Z,101226.38
2023-04-23T03:28:33.821Z,101234.56
2023-04-23T03:29:36.140Z,101236.25
2023-04-23T03:30:38.095Z,101226.13
2023-04-23T03:31:39.940Z,101231.06
2023-04-23T03:32:44.375Z,101231.88
2023-04-23T03:33:47.445Z,101234.44
2023-04-23T03:34:52.700Z,101230.75
2023-04-23T03:35:54.596Z,101230.91
2023-04-23T03:37:05.032Z,101235.13
2023-04-23T03:38:08.747Z,101226.22
2023-04-23T03:39:12.113Z,101229.91
2023-04-23T03:40:29.131Z,101223.84
2023-04-23T03:41:34.733Z,101207.78
2023-04-23T03:42:37.553Z,101228.06
2023-04-23T03:43:40.324Z,101227.22
2023-04-23T03:44:51.722Z,101228.06
2023-04-23T03:45:54.302Z,101234.44
2023-04-23T03:46:56.984Z,101227.50
2023-04-23T03:47:58.947Z,101232.88
2023-04-23T03:49:01.292Z,101231.19
2023-04-23T03:50:03.290Z,101221.44
2023-04-23T03:51:05.293Z,101239.25
2023-04-23T03:52:22.200Z,101233.75
2023-04-23T03:53:24.190Z,101224.13
2023-04-23T03:54:44.713Z,101227.22
2023-04-23T03:55:52.391Z,101224.69
2023-04-23T03:56:54.692Z,101224.13
2023-04-23T03:58:03.587Z,101215.38
2023-04-23T03:59:16.933Z,101181.84
2023-04-23T04:00:20.756Z,101223.13
2023-04-23T04:01:22.639Z,101216.25
2023-04-23T04:02:26.118Z,101213.69
2023-04-23T04:03:29.310Z,101215.56
2023-04-23T04:04:32.230Z,101217.38
2023-04-23T04:05:35.023Z,101205.81
2023-04-23T04:06:36.902Z,101209.06
2023-04-23T04:07:38.942Z,101206.81
2023-04-23T04:08:40.730Z,101209.50
2023-04-23T04:09:42.492Z,101215.81
2023-04-23T04:10:44.427Z,101209.63
2023-04-23T04:11:46.302Z,101209.63
2023-04-23T04:12:48.437Z,101205.25
2023-04-23T04:13:50.245Z,101206.94
2023-04-23T04:14:52.038Z,101201.72
2023-04-23T04:15:53.880Z,101201.56
2023-04-23T04:16:55.697Z,101203.56
2023-04-23T04:17:57.592Z,101198.19
2023-04-23T04:18:59.454Z,101191.97
2023-04-23T04:20:01.224Z,101169.19
2023-04-23T04:21:03.045Z,101186.91
2023-04-23T04:22:05.002Z,101188.59
2023-04-23T04:23:06.794Z,101188.59
2023-04-23T04:24:08.801Z,101184.91
2023-04-23T04:25:10.580Z,101185.78
2023-04-23T04:27:15.841Z,101171.41
2023-04-23T04:28:17.881Z,101189.44
2023-04-23T04:29:21.434Z,101182.41
2023-04-23T04:30:24.773Z,101185.06
2023-04-23T04:31:28.206Z,101188.47
2023-04-23T04:32:30.145Z,101188.59
2023-04-23T04:33:33.019Z,101187.75
2023-04-23T04:34:36.213Z,101186.91
2023-04-23T04:35:38.089Z,101175.94
2023-04-23T04:36:39.910Z,101174.25
2023-04-23T04:37:43.880Z,101179.00
2023-04-23T04:38:45.762Z,101187.75
2023-04-23T04:39:47.532Z,101180.72
2023-04-23T04:40:50.636Z,101184.38
2023-04-23T04:41:52.569Z,101175.34
2023-04-23T04:42:55.199Z,101176.63
2023-04-23T04:43:58.577Z,101189.75
2023-04-23T04:45:00.822Z,101185.22
2023-04-23T04:46:03.198Z,101179.00
2023-04-23T04:47:08.167Z,101184.38
2023-04-23T04:48:10.164Z,101174.25
2023-04-23T04:49:12.677Z,101180.00
2023-04-23T04:50:14.531Z,101181.69
2023-04-23T04:51:16.464Z,101176.22
2023-04-23T04:52:18.429Z,101181.00
2023-04-23T04:53:20.289Z,101182.69
2023-04-23T04:54:22.109Z,101184.50
2023-04-23T04:55:23.950Z,101184.50
2023-04-23T04:56:26.090Z,101184.97
2023-04-23T04:57:27.843Z,101192.56
2023-04-23T04:58:29.611Z,101179.44
2023-04-23T04:59:31.476Z,101186.38
2023-04-23T05:00:33.821Z,101188.06
2023-04-23T05:01:37.230Z,101178.44
2023-04-23T05:02:39.421Z,101188.88
2023-04-23T05:03:41.540Z,101182.00
2023-04-23T05:04:43.690Z,101175.94
2023-04-23T05:05:45.925Z,101179.31
2023-04-23T05:06:47.722Z,101172.84
2023-04-23T05:07:50.142Z,101184.69
2023-04-23T05:08:51.963Z,101179.31
2023-04-23T05:09:53.732Z,101177.63
2023-04-23T05:10:55.627Z,101183.00
2023-04-23T05:11:58.009Z,101183.00
2023-04-23T05:13:00.803Z,101182.28
2023-04-23T05:14:04.331Z,101182.28
2023-04-23T05:15:07.178Z,101179.44
2023-04-23T05:16:09.674Z,101181.13
2023-04-23T05:17:11.848Z,101178.63
2023-04-23T05:18:13.719Z,101181.31
2023-04-23T05:19:15.586Z,101175.94
2023-04-23T05:20:17.542Z,101184.97
2023-04-23T05:21:19.725Z,101177.91
2023-04-23T05:22:21.826Z,101187.78
2023-04-23T05:23:23.730Z,101177.91
2023-04-23T05:24:25.641Z,101180.59
2023-04-23T05:25:27.405Z,101181.59
2023-04-23T05:26:29.605Z,101179.75
2023-04-23T05:27:31.447Z,101176.22
2023-04-23T05:28:33.431Z,101182.59
2023-04-23T05:29:35.377Z,101179.91
2023-04-23T05:30:37.628Z,101163.84
2023-04-23T05:31:39.453Z,101176.38
2023-04-23T05:32:41.669Z,101172.59
2023-04-23T05:33:50.056Z,101169.75
2023-04-23T05:34:52.658Z,101180.72
2023-04-23T05:35:55.104Z,101181.72
2023-04-23T05:36:56.918Z,101170.72
2023-04-23T05:37:58.820Z,101179.03
2023-04-23T05:39:00.821Z,101165.22
2023-04-23T05:40:02.920Z,101162.69
2023-04-23T05:41:04.825Z,101166.63
2023-04-23T05:42:06.675Z,101171.16
2023-04-23T05:43:08.549Z,101168.63
2023-04-23T05:44:10.317Z,101160.31
2023-04-23T05:45:12.100Z,101153.13
2023-04-23T05:46:13.978Z,101169.47
2023-04-23T05:47:15.946Z,101164.09
2023-04-23T05:48:17.889Z,101171.28
2023-04-23T05:49:19.678Z,101159.88
2023-04-23T05:50:22.012Z,101157.06
2023-04-23T05:51:23.891Z,101156.19
2023-04-23T05:52:25.733Z,101161.56
2023-04-23T05:53:28.437Z,101157.06
2023-04-23T05:54:30.444Z,101150.84
2023-04-23T05:55:32.229Z,101152.66
2023-04-23T05:56:34.295Z,101149.97
2023-04-23T05:57:37.143Z,101150.97
2023-04-23T05:58:39.143Z,101149.13
2023-04-23T05:59:41.272Z,101139.53
2023-04-23T06:00:43.321Z,101154.50
2023-04-23T06:01:45.273Z,101142.91
2023-04-23T06:02:48.182Z,101143.91
2023-04-23T06:03:50.575Z,101139.53
2023-04-23T06:04:53.054Z,101152.94
2023-04-23T06:05:55.258Z,101136.47
2023-04-23T06:06:57.148Z,101135.63
2023-04-23T06:07:58.942Z,101139.53
2023-04-23T06:09:00.760Z,101141.38
2023-04-23T06:10:05.638Z,101144.91
2023-04-23T06:11:07.958Z,101140.09
2023-04-23T06:12:11.679Z,101124.59
2023-04-23T06:13:13.567Z,101134.16
2023-04-23T06:14:15.561Z,101134.44
2023-04-23T06:15:17.358Z,101130.63
2023-04-23T06:16:19.575Z,101124.09
2023-04-23T06:17:21.681Z,101115.53
2023-04-23T06:18:23.478Z,101122.81
2023-04-23T06:19:27.344Z,101113.25
2023-04-23T06:20:29.807Z,101114.16
2023-04-23T06:21:32.584Z,101121.91
2023-04-23T06:22:34.537Z,101122.47
2023-04-23T06:23:36.933Z,101115.09
2023-04-23T06:24:39.026Z,101120.16
2023-04-23T06:25:41.007Z,101119.88
2023-04-23T06:26:42.827Z,101115.88
2023-04-23T06:27:51.361Z,101110.22
2023-04-23T06:28:57.591Z,101111.63
2023-04-23T06:30:09.229Z,101097.25
2023-04-23T06:31:12.177Z,101103.69
2023-04-23T06:32:14.276Z,101114.25
2023-04-23T06:33:16.108Z,101110.44
2023-04-23T06:34:17.868Z,101100.38
2023-04-23T06:35:19.862Z,101094.94
2023-04-23T06:36:21.904Z,101098.53
2023-04-23T06:37:23.685Z,101099.63
2023-04-23T06:38:25.541Z,101102.00
2023-04-23T06:39:27.379Z,101098.16
2023-04-23T06:40:29.161Z,101105.75
2023-04-23T06:41:31.104Z,101097.72
2023-04-23T06:42:45.625Z,101101.47
2023-04-23T06:43:55.925Z,101102.00
2023-04-23T06:45:08.756Z,101093.63
2023-04-23T06:46:10.649Z,101107.91
2023-04-23T06:47:12.531Z,101098.00
2023-04-23T06:48:14.682Z,101099.69
2023-04-23T06:49:16.537Z,101090.63
2023-04-23T06:50:18.427Z,101099.38
2023-04-23T06:51:20.520Z,101097.38
2023-04-23T06:52:22.357Z,101093.69
2023-04-23T06:53:24.184Z,101099.06
2023-04-23T06:54:26.245Z,101089.00
2023-04-23T06:55:29.142Z,101089.69
2023-04-23T06:56:31.092Z,101094.91
2023-04-23T06:57:32.982Z,101090.38
2023-04-23T06:58:34.988Z,101088.38
2023-04-23T06:59:45.684Z,101083.69
2023-04-23T07:00:49.312Z,101090.75
2023-04-23T07:01:52.503Z,101080.88
2023-04-23T07:02:54.590Z,101082.56
2023-04-23T07:03:56.585Z,101082.00
2023-04-23T07:04:58.871Z,101055.41
2023-04-23T07:06:00.666Z,101082.56
2023-04-23T07:07:02.710Z,101066.44
2023-04-23T07:08:04.711Z,101079.69
2023-04-23T07:09:07.324Z,101082.38
2023-04-23T07:10:12.380Z,101074.31
2023-04-23T07:11:14.296Z,101081.25
2023-04-23T07:12:16.197Z,101078.56
2023-04-23T07:13:18.095Z,101081.25
2023-04-23T07:14:20.053Z,101080.25
2023-04-23T07:15:21.858Z,101081.06
2023-04-23T07:16:24.706Z,101081.94
2023-04-23T07:17:26.883Z,101077.38
2023-04-23T07:18:28.867Z,101079.06
2023-04-23T07:19:30.640Z,101087.13
2023-04-23T07:20:32.890Z,101084.44
2023-04-23T07:21:34.662Z,101081.75
2023-04-23T07:22:36.525Z,101082.63
2023-04-23T07:23:38.382Z,101074.56
2023-04-23T07:24:41.744Z,101079.75
2023-04-23T07:25:43.810Z,101084.97
2023-04-23T07:26:46.035Z,101068.13
2023-04-23T07:27:48.232Z,101077.94
2023-04-23T07:28:52.638Z,101079.59
2023-04-23T07:29:54.828Z,101082.13
2023-04-23T07:30:56.638Z,101082.28
2023-04-23T07:31:58.506Z,101078.75
2023-04-23T07:33:01.116Z,101084.81
2023-04-23T07:34:03.456Z,101077.06
2023-04-23T07:35:06.593Z,101070.53
2023-04-23T07:36:08.448Z,101072.22
2023-04-23T07:37:10.268Z,101057.06
2023-04-23T07:38:12.260Z,101074.91
2023-04-23T07:39:14.319Z,101065.00
2023-04-23T07:40:16.082Z,101065.16
2023-04-23T07:41:18.348Z,101065.16
2023-04-23T07:42:20.338Z,101064.16
2023-04-23T07:43:22.140Z,101050.06
2023-04-23T07:44:23.969Z,101051.19
2023-04-23T07:45:26.032Z,101054.75
2023-04-23T07:46:28.023Z,101058.13
2023-04-23T07:47:30.007Z,101058.44
2023-04-23T07:48:31.897Z,101057.25
2023-04-23T07:49:33.685Z,101057.25
2023-04-23T07:50:35.531Z,101053.75
2023-04-23T07:51:37.820Z,101051.38
2023-04-23T07:52:40.062Z,101056.44
2023-04-23T07:53:42.259Z,101050.19
2023-04-23T07:54:44.868Z,101045.81
2023-04-23T07:55:46.699Z,101045.81
2023-04-23T07:56:48.649Z,101043.31
2023-04-23T07:57:50.570Z,101038.75
2023-04-23T07:58:54.105Z,101039.75
2023-04-23T07:59:56.037Z,101035.25
2023-04-23T08:00:57.890Z,101034.38
2023-04-23T08:01:59.665Z,101031.69
2023-04-23T08:03:01.669Z,101029.00
2023-04-23T08:04:03.882Z,101036.06
2023-04-23T08:05:06.904Z,101033.38
2023-04-23T08:06:12.289Z,101022.81
2023-04-23T08:07:14.047Z,101025.31
2023-04-23T08:08:15.918Z,101030.69
2023-04-23T08:09:17.676Z,101023.63
2023-04-23T08:10:19.637Z,101023.63
2023-04-23T08:11:22.035Z,101023.63
2023-04-23T08:12:23.823Z,101022.81
2023-04-23T08:13:25.608Z,101029.00
2023-04-23T08:14:27.466Z,101033.38
2023-04-23T08:15:29.463Z,101023.63
2023-04-23T08:16:31.872Z,101014.56
2023-04-23T08:17:33.730Z,101016.44
2023-04-23T08:18:35.957Z,101010.19
2023-04-23T08:19:37.834Z,101009.84
2023-04-23T08:20:39.627Z,101013.88
2023-04-23T08:21:41.542Z,101005.78
2023-04-23T08:22:43.435Z,101020.81
2023-04-23T08:23:45.300Z,101014.56
2023-04-23T08:24:47.180Z,101007.50
2023-04-23T08:25:48.961Z,101011.88
2023-04-23T08:26:50.789Z,101009.19
2023-04-23T08:27:52.767Z,101006.50
2023-04-23T08:28:54.700Z,100996.75
2023-04-23T08:29:56.556Z,100984.66
2023-04-23T08:30:58.389Z,100991.72
2023-04-23T08:32:00.251Z,100992.38
2023-04-23T08:33:02.222Z,100990.56
2023-04-23T08:34:04.128Z,100990.56
2023-04-23T08:35:06.146Z,100985.34
2023-04-23T08:36:08.345Z,100987.03
2023-04-23T08:37:16.506Z,100987.03
2023-04-23T08:38:25.302Z,100972.22
2023-04-23T08:39:28.089Z,100988.69
2023-04-23T08:40:31.960Z,100989.69
2023-04-23T08:41:43.926Z,100985.19
2023-04-23T08:43:00.881Z,100987.69
2023-04-23T08:44:14.782Z,100986.56
2023-04-23T08:45:17.212Z,100964.19
2023-04-23T08:46:19.807Z,100976.94
2023-04-23T08:47:25.384Z,100977.28
2023-04-23T08:48:29.583Z,100973.53
2023-04-23T08:49:33.799Z,100976.44
2023-04-23T08:50:38.261Z,100980.97
2023-04-23T08:51:43.663Z,100974.53
2023-04-23T08:52:55.870Z,100981.63
2023-04-23T08:53:59.407Z,100984.31
2023-04-23T08:55:02.351Z,100983.50
2023-04-23T08:56:07.218Z,100986.34
2023-04-23T08:57:10.001Z,100978.59
2023-04-23T08:58:12.556Z,100978.91
2023-04-23T08:59:14.477Z,100986.34
2023-04-23T09:00:18.746Z,100990.03
2023-04-23T09:01:20.849Z,100978.91
2023-04-23T09:02:23.274Z,100971.50
2023-04-23T09:03:26.324Z,100981.44
2023-04-23T09:04:28.940Z,100980.44
2023-04-23T09:05:31.556Z,100979.28
2023-04-23T09:06:33.396Z,100981.97
2023-04-23T09:07:36.583Z,100988.34
2023-04-23T09:08:38.874Z,100976.09
2023-04-23T09:09:41.562Z,100964.94
2023-04-23T09:10:44.799Z,100983.66
2023-04-23T09:11:46.656Z,100981.28
2023-04-23T09:12:48.583Z,100988.34
2023-04-23T09:13:50.602Z,100971.84
2023-04-23T09:14:52.463Z,100942.56
2023-04-23T09:15:54.301Z,100967.16
2023-04-23T09:16:56.432Z,100975.91
2023-04-23T09:17:59.740Z,100975.91
2023-04-23T09:19:02.422Z,100970.53
2023-04-23T09:20:06.072Z,100976.75
2023-04-23T09:21:08.015Z,100966.03
2023-04-23T09:22:10.190Z,100958.09
2023-04-23T09:23:15.105Z,100945.66
2023-04-23T09:24:17.994Z,100953.72
2023-04-23T09:25:22.264Z,100952.72
2023-04-23T09:26:24.161Z,100958.97
2023-04-23T09:27:26.497Z,100951.91
2023-04-23T09:28:38.369Z,100952.72
2023-04-23T09:29:44.636Z,100951.03
2023-04-23T09:30:48.715Z,100953.72
2023-04-23T09:31:52.989Z,100950.22
2023-04-23T09:32:55.324Z,100949.34
2023-04-23T09:33:58.235Z,100946.00
2023-04-23T09:35:02.800Z,100946.13
2023-04-23T09:36:15.742Z,100950.34
2023-04-23T09:37:19.055Z,100949.34
2023-04-23T09:38:21.017Z,100942.94
2023-04-23T09:39:23.969Z,100930.66
2023-04-23T09:40:28.017Z,100947.31
2023-04-23T09:41:31.250Z,100944.31
2023-04-23T09:42:33.227Z,100955.06
2023-04-23T09:43:35.074Z,100947.81
2023-04-23T09:44:36.937Z,100949.81
2023-04-23T09:45:48.517Z,100953.38
2023-04-23T09:46:50.945Z,100935.34
2023-04-23T09:47:56.438Z,100950.69
2023-04-23T09:48:58.357Z,100935.88
2023-04-23T09:50:01.244Z,100929.97
2023-04-23T09:51:03.104Z,100922.88
2023-04-23T09:52:07.364Z,100946.44
2023-04-23T09:53:10.660Z,100950.00
2023-04-23T09:54:13.503Z,100939.72
2023-04-23T09:55:15.546Z,100948.31
2023-04-23T09:56:21.015Z,100952.00
2023-04-23T09:57:24.899Z,100933.16
2023-04-23T09:58:28.814Z,100950.13
2023-04-23T09:59:46.868Z,100940.91
2023-04-23T10:00:50.549Z,100951.69
2023-04-23T10:01:53.178Z,100951.69
2023-04-23T10:02:55.042Z,100950.13
2023-04-23T10:03:57.038Z,100942.72
2023-04-23T10:05:06.924Z,100954.69
2023-04-23T10:06:30.582Z,100967.47
2023-04-23T10:07:38.692Z,100963.47
2023-04-23T10:08:41.369Z,100967.47
2023-04-23T10:09:43.626Z,100962.94
2023-04-23T10:11:02.433Z,100954.84
2023-04-23T10:12:20.580Z,100968.84
2023-04-23T10:13:32.117Z,100950.34
2023-04-23T10:14:34.373Z,100958.97
2023-04-23T10:15:36.609Z,100963.66
2023-04-23T10:16:48.710Z,100963.78
2023-04-23T10:17:52.209Z,100951.03
2023-04-23T10:18:55.588Z,100956.41
2023-04-23T10:20:01.725Z,100944.97
2023-04-23T10:21:04.570Z,100943.13
2023-04-23T10:23:22.454Z,100938.47
2023-04-23T10:24:25.456Z,100935.78
2023-04-23T10:25:28.621Z,100927.50
2023-04-23T10:26:32.088Z,100928.00
2023-04-23T10:27:51.247Z,100916.06
2023-04-23T10:28:56.872Z,100922.16
2023-04-23T10:29:59.562Z,100925.84
2023-04-23T10:31:03.954Z,100905.31
2023-04-23T10:32:07.221Z,100917.97
2023-04-23T10:33:22.515Z,100910.06
2023-04-23T10:34:31.998Z,100914.09
2023-04-23T10:35:34.939Z,100918.78
2023-04-23T10:36:39.618Z,100900.13
2023-04-23T10:37:42.199Z,100897.63
2023-04-23T10:38:54.955Z,100879.13
2023-04-23T10:40:09.375Z,100894.63
2023-04-23T10:41:12.757Z,100897.31
2023-04-23T10:42:14.669Z,100891.94
2023-04-23T10:43:18.009Z,100873.25
2023-04-23T10:44:44.964Z,100881.28
2023-04-23T10:45:45.750Z,100895.31
2023-04-23T10:46:53.397Z,100901.00
2023-04-23T10:47:56.356Z,100895.09
2023-04-23T10:49:17.236Z,100914.44
2023-04-23T10:50:27.203Z,100922.16
2023-04-23T10:52:43.472Z,100929.00
2023-04-23T10:53:45.983Z,100942.28
2023-04-23T10:54:50.168Z,100939.75
2023-04-23T10:56:06.655Z,100919.75
2023-04-23T10:57:09.892Z,100918.13
2023-04-23T10:58:11.716Z,100905.69
2023-04-23T10:59:21.150Z,100899.63
2023-04-23T11:00:23.285Z,100889.22
2023-04-23T11:01:28.062Z,100886.19
2023-04-23T11:02:44.434Z,100879.81
2023-04-23T11:03:47.746Z,100865.19
2023-04-23T11:04:57.819Z,100876.47
2023-04-23T11:06:07.187Z,100879.81
2023-04-23T11:07:10.837Z,100883.50
2023-04-23T11:08:19.329Z,100873.78
2023-04-23T11:09:49.604Z,100880.50
2023-04-23T11:10:56.283Z,100872.75
2023-04-23T11:11:59.926Z,100857.78
2023-04-23T11:13:20.295Z,100865.38
2023-04-23T11:14:36.040Z,100842.19
2023-04-23T11:15:38.258Z,100862.03
2023-04-23T11:16:40.126Z,100859.97
2023-04-23T11:17:44.969Z,100864.34
2023-04-23T11:19:00.134Z,100860.66
2023-04-23T11:20:10.590Z,100860.66
2023-04-23T11:21:13.942Z,100847.66
2023-04-23T11:22:21.656Z,100857.44
2023-04-23T11:23:33.104Z,100868.88
2023-04-23T11:24:43.068Z,100858.31
2023-04-23T11:25:46.670Z,100857.28
2023-04-23T11:26:51.630Z,100853.94
2023-04-23T11:27:55.697Z,100836.09
2023-04-23T11:28:58.472Z,100841.16
2023-04-23T11:30:00.445Z,100835.09
2023-04-23T11:31:03.149Z,100848.88
2023-04-23T11:32:10.493Z,100836.47
2023-04-23T11:33:12.434Z,100842.50
2023-04-23T11:34:14.676Z,100839.13
2023-04-23T11:35:21.556Z,100829.72
2023-04-23T11:36:24.259Z,100831.09
2023-04-23T11:37:26.202Z,100834.78
2023-04-23T11:38:33.682Z,100821.34
2023-04-23T11:39:35.557Z,100831.09
2023-04-23T11:40:37.426Z,100829.41
2023-04-23T11:41:39.568Z,100820.97
2023-04-23T11:42:46.655Z,100831.41
2023-04-23T11:43:48.466Z,100821.34
2023-04-23T11:44:50.344Z,100817.97
2023-04-23T11:45:52.264Z,100810.75
2023-04-23T11:46:54.989Z,100812.59
2023-04-23T11:48:00.924Z,100803.69
2023-04-23T11:49:03.056Z,100791.28
2023-04-23T11:50:05.284Z,100782.84
2023-04-23T11:51:07.906Z,100791.28
2023-04-23T11:52:10.840Z,100791.28
2023-04-23T11:53:12.993Z,100793.13
2023-04-23T11:54:15.124Z,100791.28
2023-04-23T11:55:17.108Z,100787.75
2023-04-23T11:56:24.004Z,100783.34
2023-04-23T11:57:25.868Z,100790.44
2023-04-23T11:58:27.626Z,100781.53
2023-04-23T11:59:29.422Z,100788.72
2023-04-23T12:00:31.249Z,100784.22
2023-04-23T12:01:47.396Z,100771.59
2023-04-23T12:02:59.287Z,100786.75
2023-04-23T12:04:10.268Z,100789.25
2023-04-23T12:05:12.318Z,100790.13
2023-04-23T12:06:17.868Z,100784.22
2023-04-23T12:07:26.409Z,100789.59
2023-04-23T12:08:34.955Z,100773.59